Time;durP1;ratioP1;P1;durP2;ratioP2;P2;SDS_P1;SDS_P2;PMS_P1;PMS_P2;Temp;Humidity;BMP_temperature;BMP_pressure;BME280_temperature;BME280_humidity;BME280_pressure;Samples;Min_cycle;Max_cycle;Signal;HPM_P1;HPM_P2
2023/01/24 00:01:04;;;;;;;5.90;4.13;;;;;;;19.29;44.78;102028.56;5054384;28;20045;-59
2023/01/24 00:03:31;;;;;;;8.70;4.68;;;;;;;19.27;44.83;102026.84;5054344;28;20048;-59
2023/01/24 00:05:58;;;;;;;13.88;4.82;;;;;;;19.28;44.93;102027.69;5054198;28;20048;-58
2023/01/24 00:08:26;;;;;;;7.55;4.70;;;;;;;19.28;44.59;102030.38;5054687;28;20048;-47
2023/01/24 00:11:00;;;;;;;6.07;3.75;;;;;;;19.27;44.73;102034.88;5054288;28;20068;-47
2023/01/24 00:13:28;;;;;;;6.40;4.38;;;;;;;19.27;44.58;102045.63;5054212;28;20411;-48
2023/01/24 00:16:13;;;;;;;6.40;4.57;;;;;;;19.27;44.89;102042.94;5054208;28;20049;-46
2023/01/24 00:18:41;;;;;;;7.57;4.85;;;;;;;19.27;44.79;102039.41;5054416;28;20057;-58
2023/01/24 00:21:14;;;;;;;5.63;4.28;;;;;;;19.26;44.79;102043.91;5053880;28;20044;-59
2023/01/24 00:23:44;;;;;;;7.53;4.63;;;;;;;19.27;44.71;102056.38;5053738;28;20045;-59
2023/01/24 00:26:13;;;;;;;7.30;4.13;;;;;;;19.26;44.46;102060.03;5053818;28;20048;-59
2023/01/24 00:28:43;;;;;;;6.47;4.35;;;;;;;19.26;44.57;102064.53;5054158;28;20410;-46
2023/01/24 00:31:10;;;;;;;6.13;4.50;;;;;;;19.26;44.40;102059.16;5052570;28;20056;-47
2023/01/24 00:33:38;;;;;;;6.82;5.05;;;;;;;19.26;44.39;102061.84;5052529;28;20053;-46
2023/01/24 00:36:08;;;;;;;6.30;4.10;;;;;;;19.24;44.37;102056.59;5052421;28;20040;-48
2023/01/24 00:38:35;;;;;;;8.30;5.05;;;;;;;19.24;44.34;102061.97;5069297;28;20059;-59
2023/01/24 00:41:03;;;;;;;8.05;5.00;;;;;;;19.25;43.95;102070.88;5052271;28;20057;-59
2023/01/24 00:43:30;;;;;;;6.65;4.35;;;;;;;19.24;44.54;102071.81;5053662;28;20120;-59
2023/01/24 00:45:58;;;;;;;5.78;4.30;;;;;;;19.23;44.24;102073.63;5053073;28;20041;-59
2023/01/24 00:48:26;;;;;;;7.15;4.55;;;;;;;19.23;44.33;102070.94;5053387;28;20045;-47
2023/01/24 00:50:54;;;;;;;7.80;4.85;;;;;;;19.23;44.40;102079.00;5053403;28;20453;-46
2023/01/24 00:53:21;;;;;;;6.68;5.30;;;;;;;19.23;44.28;102078.16;5053270;28;20045;-49
2023/01/24 00:55:50;;;;;;;6.13;4.57;;;;;;;19.22;44.33;102076.44;5053380;28;20052;-48
2023/01/24 00:58:21;;;;;;;6.53;4.75;;;;;;;19.22;44.32;102085.34;5053752;28;20072;-58
2023/01/24 01:00:48;;;;;;;6.47;4.30;;;;;;;19.22;44.33;102089.88;5052170;28;20053;-59
2023/01/24 01:03:18;;;;;;;6.40;4.43;;;;;;;19.22;44.39;102104.13;5051652;28;20064;-59
2023/01/24 01:05:46;;;;;;;5.75;4.32;;;;;;;19.22;44.33;102114.03;5053000;28;20048;-59
2023/01/24 01:08:13;;;;;;;6.43;4.28;;;;;;;19.22;44.36;102114.03;5052052;28;20049;-47
2023/01/24 01:10:41;;;;;;;6.28;4.20;;;;;;;19.21;44.29;102120.38;5053429;28;20045;-59
2023/01/24 01:13:12;;;;;;;6.35;4.03;;;;;;;19.21;44.30;102112.31;5052184;28;20053;-59
2023/01/24 01:15:39;;;;;;;5.78;4.13;;;;;;;19.20;44.43;102108.75;5051675;28;20048;-59
2023/01/24 01:18:07;;;;;;;6.40;4.32;;;;;;;19.19;44.43;102111.53;5053251;28;20072;-50
2023/01/24 01:20:38;;;;;;;6.43;4.30;;;;;;;19.20;44.48;102123.97;5053127;28;20053;-59
2023/01/24 01:23:06;;;;;;;5.80;4.60;;;;;;;19.18;44.60;102118.72;5053068;28;20056;-59
2023/01/24 01:25:33;;;;;;;5.43;4.32;;;;;;;19.18;44.68;102116.03;5053038;28;20387;-59
2023/01/24 01:28:00;;;;;;;5.60;4.18;;;;;;;19.18;44.65;102121.41;5053405;28;20045;-54
2023/01/24 01:30:27;;;;;;;6.53;4.28;;;;;;;19.18;44.75;102128.59;5053555;28;20068;-47
2023/01/24 01:32:55;;;;;;;5.75;4.63;;;;;;;19.18;44.81;102133.97;5053210;28;20045;-48
2023/01/24 01:35:22;;;;;;;8.43;3.95;;;;;;;19.18;44.77;102126.78;5052887;28;20045;-47
2023/01/24 01:37:50;;;;;;;6.32;3.95;;;;;;;19.18;44.93;102131.28;5053179;28;20048;-50
2023/01/24 01:40:18;;;;;;;4.45;3.55;;;;;;;19.17;44.94;102130.44;5051898;28;20060;-58
2023/01/24 01:42:46;;;;;;;5.40;4.18;;;;;;;19.18;44.67;102131.28;5052786;28;20057;-58
2023/01/24 01:45:53;;;;;;;6.20;3.90;;;;;;;19.17;44.92;102124.22;5053026;28;20475;-58
2023/01/24 01:48:20;;;;;;;5.30;3.72;;;;;;;19.17;44.96;102132.25;5041609;28;20048;-47
2023/01/24 01:50:54;;;;;;;5.43;3.78;;;;;;;19.17;44.91;102129.56;5053192;28;20364;-48
2023/01/24 01:53:26;;;;;;;5.75;4.00;;;;;;;19.17;44.92;102132.25;5053196;28;20072;-47
2023/01/24 01:56:01;;;;;;;5.47;4.10;;;;;;;19.17;44.84;102137.63;5054766;28;20045;-48
2023/01/24 01:58:29;;;;;;;6.32;3.38;;;;;;;19.16;44.93;102143.94;5055668;28;20044;-59
2023/01/24 02:00:56;;;;;;;5.80;3.83;;;;;;;19.16;44.82;102149.31;5055352;28;20053;-59
2023/01/24 02:03:39;;;;;;;5.60;3.80;;;;;;;19.16;44.92;102160.03;5056779;28;20056;-59
2023/01/24 02:06:34;;;;;;;5.32;4.07;;;;;;;19.15;45.15;102163.69;5056706;28;20041;-59
2023/01/24 02:09:04;;;;;;;5.68;4.07;;;;;;;19.16;45.03;102165.41;5056320;28;20064;-59
2023/01/24 02:11:38;;;;;;;5.07;3.80;;;;;;;19.14;45.08;102164.66;5056424;28;20056;-59
2023/01/24 02:16:56;;;;;;;4.90;3.55;;;;;;;19.14;45.07;102162.84;5056564;28;20045;-59
2023/01/24 02:19:43;;;;;;;6.18;3.90;;;;;;;19.14;45.24;102156.63;5056531;28;20041;-59
2023/01/24 02:22:16;;;;;;;7.55;4.43;;;;;;;19.13;45.23;102152.22;5038502;28;20049;-58
2023/01/24 02:24:48;;;;;;;;;;;;;;;19.12;45.25;102148.66;5055442;28;20479;-59
2023/01/24 02:27:15;;;;;;;5.05;3.53;;;;;;;19.12;45.30;102156.72;5056287;28;20382;-57
2023/01/24 02:29:42;;;;;;;5.10;3.58;;;;;;;19.11;45.31;102157.66;5056235;28;20387;-59
2023/01/24 02:32:12;;;;;;;4.47;3.28;;;;;;;19.11;45.53;102170.22;5054771;28;20056;-58
2023/01/24 02:34:40;;;;;;;3.92;2.95;;;;;;;19.11;45.39;102163.03;5054466;28;20418;-58
2023/01/24 02:37:12;;;;;;;5.07;3.67;;;;;;;19.10;45.37;102166.69;5054714;28;20056;-58
2023/01/24 02:39:50;;;;;;;5.47;3.58;;;;;;;19.09;45.55;102159.59;5056317;28;20487;-47
2023/01/24 02:42:22;;;;;;;6.93;3.40;;;;;;;19.09;45.55;102164.97;5054719;28;20055;-48
2023/01/24 02:45:05;;;;;;;5.20;3.78;;;;;;;19.10;45.58;102160.44;5054587;28;20045;-47
2023/01/24 02:47:37;;;;;;;5.47;3.63;;;;;;;19.10;45.47;102165.81;5054802;28;20056;-46
2023/01/24 02:50:06;;;;;;;5.68;3.92;;;;;;;19.09;45.35;102164.09;5056067;28;20053;-58
2023/01/24 02:55:20;;;;;;;4.40;2.88;;;;;;;19.09;45.31;102173.00;5054337;28;20052;-58
2023/01/24 02:58:07;;;;;;;5.95;3.53;;;;;;;19.09;45.49;102172.16;5055556;28;20491;-58
2023/01/24 03:00:42;;;;;;;4.13;3.17;;;;;;;19.09;45.60;102167.66;5054246;28;20056;-59
2023/01/24 03:03:14;;;;;;;5.90;3.10;;;;;;;19.08;45.51;102173.09;5053881;28;20053;-59
2023/01/24 03:06:03;;;;;;;5.03;3.22;;;;;;;19.08;45.66;102173.97;5055394;28;20048;-59
2023/01/24 03:08:34;;;;;;;5.47;3.67;;;;;;;19.08;45.44;102178.47;5054211;28;20048;-47
2023/01/24 03:11:05;;;;;;;4.50;3.00;;;;;;;19.08;45.46;102181.16;5053711;28;20057;-47
2023/01/24 03:35:58;;;;;;;5.93;3.45;;;;;;;19.05;45.46;102184.91;5053495;28;20487;-58
2023/01/24 03:41:22;;;;;;;4.90;3.38;;;;;;;19.05;45.47;102184.06;5051283;28;20045;-47
2023/01/24 03:43:50;;;;;;;5.05;2.65;;;;;;;19.03;45.68;102184.13;5053441;28;20075;-46
2023/01/24 03:46:18;;;;;;;3.50;2.55;;;;;;;19.03;45.73;102182.31;5053004;28;20052;-47
2023/01/24 03:48:52;;;;;;;5.63;2.90;;;;;;;19.04;45.73;102185.88;5054927;28;20045;-48
2023/01/24 03:54:13;;;;;;;5.97;3.20;;;;;;;19.03;45.60;102192.19;5053048;28;20056;-52
2023/01/24 03:56:51;;;;;;;3.70;2.40;;;;;;;19.03;45.75;102192.19;5052812;28;20044;-47
2023/01/24 03:59:21;;;;;;;4.30;3.03;;;;;;;19.02;45.93;102198.50;5053300;28;20053;-58
2023/01/24 04:01:48;;;;;;;3.22;2.42;;;;;;;19.02;45.72;102199.38;5053067;28;20438;-58
2023/01/24 04:04:20;;;;;;;4.17;2.57;;;;;;;19.01;45.56;102203.03;5053184;28;20080;-59
2023/01/24 04:06:49;;;;;;;5.20;2.38;;;;;;;19.01;45.71;102200.34;5052960;28;20049;-59
2023/01/24 04:09:17;;;;;;;4.75;2.28;;;;;;;19.01;45.68;102194.97;5053552;28;20060;-59
2023/01/24 04:11:44;;;;;;;3.65;2.58;;;;;;;19.01;45.66;102192.28;5052793;28;20052;-51
2023/01/24 04:14:24;;;;;;;3.35;2.20;;;;;;;19.00;45.58;102187.03;5052907;28;20056;-50
2023/01/24 04:16:59;;;;;;;3.85;2.33;;;;;;;19.00;45.59;102185.19;5052937;28;20052;-47
2023/01/24 04:19:32;;;;;;;;;;;;;;;18.99;45.64;102183.44;5052514;28;20052;-47
2023/01/24 04:21:59;;;;;;;4.20;2.80;;;;;;;19.00;45.59;102182.53;5053928;28;19931;-47
2023/01/24 04:24:27;;;;;;;3.55;2.53;;;;;;;19.00;45.72;102185.19;5052418;28;20048;-47
2023/01/24 04:26:54;;;;;;;3.33;2.25;;;;;;;19.00;45.68;102187.03;5053867;28;20044;-49
2023/01/24 04:29:27;;;;;;;3.05;2.00;;;;;;;18.99;45.81;102188.81;5052862;28;20056;-47
2023/01/24 04:31:58;;;;;;;3.97;2.45;;;;;;;19.01;45.85;102199.47;5052919;28;20387;-49
2023/01/24 04:34:39;;;;;;;3.88;2.53;;;;;;;19.01;45.90;102203.03;5052529;28;20060;-48
2023/01/24 04:37:15;;;;;;;4.43;2.72;;;;;;;19.00;45.87;102198.63;5054019;28;20364;-49
2023/01/24 04:39:43;;;;;;;3.42;2.33;;;;;;;19.01;45.92;102204.84;5052436;28;20161;-48
2023/01/24 04:42:15;;;;;;;;;;;;;;;18.99;46.15;102199.56;5054226;28;20057;-48
2023/01/24 04:44:44;;;;;;;4.95;2.35;;;;;;;19.00;45.96;102209.34;5052448;28;20271;-47
2023/01/24 04:47:12;;;;;;;4.70;2.58;;;;;;;19.00;45.90;102208.50;5051987;28;20502;-47
2023/01/24 04:49:41;;;;;;;5.55;2.28;;;;;;;18.99;46.21;102201.38;5053821;28;20495;-58
2023/01/24 04:52:13;;;;;;;4.28;2.55;;;;;;;18.99;45.92;102201.38;5052318;28;20609;-59
2023/01/24 04:55:00;;;;;;;3.38;1.95;;;;;;;18.99;46.16;102206.75;5052309;28;20048;-59
2023/01/24 04:57:28;;;;;;;4.50;2.25;;;;;;;18.99;46.22;102210.28;5052277;28;20044;-59
2023/01/24 04:59:58;;;;;;;4.38;2.47;;;;;;;18.98;45.94;102205.88;5052499;28;20056;-59
2023/01/24 05:02:26;;;;;;;5.15;2.63;;;;;;;18.99;46.02;102201.38;5052125;28;20063;-59
2023/01/24 05:04:53;;;;;;;3.67;2.35;;;;;;;18.98;45.94;102208.56;5051910;28;20499;-59
2023/01/24 05:07:21;;;;;;;4.15;2.30;;;;;;;18.98;45.95;102205.88;5053328;28;20479;-58
2023/01/24 05:09:56;;;;;;;6.03;2.35;;;;;;;18.98;46.02;102219.31;5052234;28;20057;-59
2023/01/24 05:12:23;;;;;;;5.35;2.10;;;;;;;18.97;45.97;102219.41;5053268;28;20045;-58
2023/01/24 05:14:51;;;;;;;5.93;2.40;;;;;;;18.96;46.13;102221.25;5053246;28;20053;-57
2023/01/24 05:17:18;;;;;;;4.40;2.10;;;;;;;18.97;46.14;102225.66;5052409;28;20045;-58
2023/01/24 05:19:46;;;;;;;4.72;2.47;;;;;;;18.97;45.94;102227.47;5051841;28;20514;-47
2023/01/24 05:22:13;;;;;;;4.63;1.67;;;;;;;18.95;46.22;102240.97;5051748;28;20057;-47
2023/01/24 05:24:42;;;;;;;2.88;1.77;;;;;;;18.95;45.96;102232.06;5051788;28;20045;-47
2023/01/24 05:27:10;;;;;;;7.97;2.88;;;;;;;18.94;46.04;102236.56;5051450;28;20067;-47
2023/01/24 05:29:42;;;;;;;3.35;2.03;;;;;;;18.95;46.05;102238.28;5052152;28;20521;-48
2023/01/24 05:32:09;;;;;;;2.85;1.92;;;;;;;18.94;45.95;102239.25;5055702;28;20049;-49
2023/01/24 05:34:36;;;;;;;2.92;2.00;;;;;;;18.93;46.16;102240.22;5055865;28;20049;-47
2023/01/24 05:37:06;;;;;;;3.45;1.90;;;;;;;18.94;45.96;102236.56;5055173;28;20053;-48
2023/01/24 05:39:35;;;;;;;5.75;2.20;;;;;;;18.94;45.96;102243.75;5055411;28;20055;-58
2023/01/24 05:42:03;;;;;;;3.92;2.33;;;;;;;18.94;45.97;102241.94;5055121;28;20499;-59
2023/01/24 05:44:39;;;;;;;4.63;2.20;;;;;;;18.95;45.87;102253.53;5055417;28;20060;-59
2023/01/24 05:47:06;;;;;;;4.40;2.13;;;;;;;18.95;45.84;102258.88;5055253;28;20045;-60
2023/01/24 05:49:37;;;;;;;2.70;1.65;;;;;;;18.94;45.86;102241.94;5055707;28;20049;-48
2023/01/24 05:52:05;;;;;;;3.47;2.17;;;;;;;18.93;45.94;102248.25;5055059;28;20044;-46
2023/01/24 05:54:52;;;;;;;4.68;1.75;;;;;;;18.94;46.00;102258.03;5056246;28;20052;-48
2023/01/24 05:57:25;;;;;;;4.53;2.47;;;;;;;18.94;45.80;102262.53;5055466;28;20048;-49
2023/01/24 06:00:21;;;;;;;2.70;1.70;;;;;;;18.93;45.98;102266.19;5043971;28;20059;-46
2023/01/24 06:03:07;;;;;;;3.95;2.10;;;;;;;18.93;45.97;102267.03;5063421;28;20052;-47
2023/01/24 06:05:35;;;;;;;2.30;1.50;;;;;;;18.92;45.90;102265.31;5056126;28;20060;-46
2023/01/24 06:08:03;;;;;;;4.72;1.58;;;;;;;18.93;46.02;102269.72;5055414;28;20056;-59
2023/01/24 06:10:30;;;;;;;3.22;2.00;;;;;;;18.92;45.95;102270.69;5055257;28;20053;-48
2023/01/24 06:13:08;;;;;;;4.45;1.80;;;;;;;18.92;46.11;102272.47;5055273;28;20053;-47
2023/01/24 06:15:36;;;;;;;3.47;1.63;;;;;;;18.92;46.03;102275.16;5055924;28;20053;-47
2023/01/24 06:18:06;;;;;;;4.22;1.98;;;;;;;18.92;45.88;102272.47;5054705;28;20045;-47
2023/01/24 06:20:35;;;;;;;3.63;1.52;;;;;;;18.92;45.89;102280.53;5038162;28;20053;-59
2023/01/24 06:23:06;;;;;;;3.30;1.60;;;;;;;18.91;45.93;102284.19;5056201;28;20056;-59
2023/01/24 06:25:39;;;;;;;4.90;1.98;;;;;;;18.89;46.05;102278.94;5055139;28;20049;-59
2023/01/24 06:28:08;;;;;;;3.70;2.13;;;;;;;18.90;46.03;102277.09;5055729;28;20040;-59
2023/01/24 06:30:40;;;;;;;3.13;1.60;;;;;;;18.90;46.03;102277.97;5055876;28;20060;-59
2023/01/24 06:33:39;;;;;;;2.70;1.67;;;;;;;18.91;46.05;102281.50;5054752;28;20049;-59
2023/01/24 06:36:17;;;;;;;3.15;1.60;;;;;;;18.89;46.07;102275.38;5055743;28;20471;-59
2023/01/24 06:38:44;;;;;;;3.15;1.70;;;;;;;18.90;45.95;102282.47;5056106;28;20045;-59
2023/01/24 06:41:16;;;;;;;2.63;1.83;;;;;;;18.90;46.13;102294.06;5055679;28;20048;-59
2023/01/24 06:43:44;;;;;;;4.18;2.30;;;;;;;18.89;46.27;102296.84;5055119;28;20041;-59
2023/01/24 06:46:13;;;;;;;2.65;1.67;;;;;;;18.89;46.32;102299.53;5055805;28;20049;-48
2023/01/24 06:48:44;;;;;;;2.97;1.75;;;;;;;18.89;46.17;102304.91;5055953;28;20075;-59
2023/01/24 06:51:16;;;;;;;3.72;2.05;;;;;;;18.87;46.17;102307.66;5055620;28;20048;-59
2023/01/24 06:53:43;;;;;;;3.60;1.88;;;;;;;18.89;46.32;102315.63;5055673;28;20052;-59
2023/01/24 06:56:10;;;;;;;2.60;1.60;;;;;;;18.88;46.17;102316.56;5055506;28;20057;-59
2023/01/24 06:58:37;;;;;;;3.42;2.20;;;;;;;18.88;46.26;102320.13;5055509;28;20041;-59
2023/01/24 07:01:05;;;;;;;3.55;1.67;;;;;;;18.89;46.47;102329.06;5055434;28;20071;-59
2023/01/24 07:03:32;;;;;;;2.63;1.67;;;;;;;18.89;46.43;102324.53;5055554;28;20045;-59
2023/01/24 07:05:59;;;;;;;3.25;1.67;;;;;;;18.89;46.46;102326.38;5055437;28;20070;-59
2023/01/24 07:08:27;;;;;;;3.88;2.17;;;;;;;18.89;46.46;102334.41;5055603;28;20481;-59
2023/01/24 07:10:57;;;;;;;2.55;1.60;;;;;;;18.89;46.59;102342.47;5055450;28;20495;-59
2023/01/24 07:13:24;;;;;;;4.95;1.80;;;;;;;18.90;46.56;102350.41;5055380;28;20060;-58
2023/01/24 07:15:52;;;;;;;3.08;1.65;;;;;;;18.89;46.56;102355.88;5055832;28;20471;-59
2023/01/24 07:18:20;;;;;;;2.50;1.70;;;;;;;18.89;46.64;102358.56;5055346;28;20045;-58
2023/01/24 07:20:47;;;;;;;2.65;1.70;;;;;;;18.88;46.61;102363.06;5055325;28;20056;-59
2023/01/24 07:23:31;;;;;;;3.10;1.85;;;;;;;18.88;46.54;102362.19;5055267;28;20380;-59
2023/01/24 07:25:58;;;;;;;3.08;1.80;;;;;;;18.88;46.62;102356.81;5055279;28;20390;-59
2023/01/24 07:28:26;;;;;;;4.28;2.17;;;;;;;18.87;46.51;102363.16;5054900;28;20056;-59
2023/01/24 07:30:54;;;;;;;3.03;2.00;;;;;;;18.87;46.45;102360.47;5055158;28;20056;-58
2023/01/24 07:33:21;;;;;;;2.85;1.70;;;;;;;18.87;46.38;102366.69;5055020;28;20053;-59
2023/01/24 07:35:48;;;;;;;4.45;1.77;;;;;;;18.87;46.48;102363.16;5054961;28;20053;-59
2023/01/24 07:38:16;;;;;;;4.72;1.67;;;;;;;18.87;46.42;102376.56;5055145;28;20466;-59
2023/01/24 07:40:46;;;;;;;7.22;2.00;;;;;;;18.87;46.39;102379.25;5054667;28;20075;-59
2023/01/24 07:43:13;;;;;;;3.28;2.03;;;;;;;18.87;46.40;102379.25;5054777;28;20052;-60
2023/01/24 07:45:45;;;;;;;4.43;2.30;;;;;;;18.87;46.33;102387.28;5054737;28;20057;-59
2023/01/24 07:48:12;;;;;;;4.30;1.92;;;;;;;18.87;46.34;102390.84;5054467;28;20060;-51
2023/01/24 07:50:40;;;;;;;5.50;2.08;;;;;;;18.87;46.40;102387.28;5054577;28;20045;-60
2023/01/24 07:53:07;;;;;;;4.05;1.70;;;;;;;18.87;46.34;102387.28;5054295;28;20041;-59
2023/01/24 07:55:34;;;;;;;2.85;1.73;;;;;;;18.86;46.45;102396.31;5054398;28;20048;-59
2023/01/24 07:58:02;;;;;;;6.97;1.90;;;;;;;18.85;46.27;102402.63;5054852;28;20052;-53
2023/01/24 08:00:30;;;;;;;4.18;2.60;;;;;;;18.85;46.32;102402.63;5054537;28;20048;-47
2023/01/24 08:02:57;;;;;;;3.17;1.60;;;;;;;18.84;46.36;102406.25;5054170;28;20049;-47
2023/01/24 08:05:25;;;;;;;4.00;1.38;;;;;;;18.83;46.31;102412.59;5054236;28;20390;-48
2023/01/24 08:07:54;;;;;;;5.57;1.88;;;;;;;18.83;46.40;102410.75;5052335;28;20060;-51
2023/01/24 08:10:21;;;;;;;3.15;1.92;;;;;;;18.85;46.59;102413.38;5053786;28;20049;-51
2023/01/24 08:12:50;;;;;;;5.25;1.95;;;;;;;18.85;46.94;102418.75;5053928;28;20495;-48
2023/01/24 08:15:18;;;;;;;4.72;1.80;;;;;;;18.86;46.93;102418.63;5053898;28;20422;-49
2023/01/24 08:17:45;;;;;;;3.88;1.85;;;;;;;18.87;46.66;102419.50;5052043;28;20045;-52
2023/01/24 08:20:12;;;;;;;6.00;2.78;;;;;;;18.85;45.26;102422.28;5052034;28;20060;-59
2023/01/24 08:22:41;;;;;;;4.93;3.70;;;;;;;18.82;44.29;102427.81;5053790;28;20053;-58
2023/01/24 08:25:25;;;;;;;4.65;3.50;;;;;;;18.77;43.26;102432.59;5053556;28;20041;-59
2023/01/24 08:27:53;;;;;;;5.88;4.00;;;;;;;18.70;42.90;102445.50;5053538;28;20053;-57
2023/01/24 08:30:21;;;;;;;7.13;4.32;;;;;;;18.64;42.68;102447.66;5052538;28;20048;-48
2023/01/24 08:32:57;;;;;;;6.88;4.22;;;;;;;18.58;42.39;102448.00;5053406;28;20399;-51
2023/01/24 08:35:25;;;;;;;4.60;3.65;;;;;;;18.51;42.53;102444.78;5053585;28;20055;-47
2023/01/24 08:37:55;;;;;;;6.30;3.95;;;;;;;18.46;42.56;102445.03;5053237;28;20051;-57
2023/01/24 08:40:22;;;;;;;6.32;4.13;;;;;;;18.44;42.78;102444.28;5053514;28;20061;-58
2023/01/24 08:42:50;;;;;;;7.28;4.07;;;;;;;18.42;42.62;102439.94;5053101;28;20045;-58
2023/01/24 08:45:18;;;;;;;5.13;3.70;;;;;;;18.39;42.55;102448.16;5053093;28;20507;-58
2023/01/24 08:47:51;;;;;;;6.75;4.20;;;;;;;18.35;42.38;102458.22;5053289;28;20048;-59
2023/01/24 08:50:19;;;;;;;6.93;5.03;;;;;;;18.31;42.51;102459.34;5053457;28;20383;-58
2023/01/24 08:52:48;;;;;;;6.15;4.25;;;;;;;18.29;42.56;102459.41;5053226;28;20056;-58
2023/01/24 08:55:15;;;;;;;5.75;3.90;;;;;;;18.26;42.50;102464.94;5053144;28;20498;-58
2023/01/24 08:57:43;;;;;;;8.32;4.10;;;;;;;18.23;42.36;102467.81;5052991;28;20052;-58
2023/01/24 09:00:11;;;;;;;7.20;4.18;;;;;;;18.20;42.41;102467.09;5053408;28;20399;-48
2023/01/24 09:02:38;;;;;;;6.55;4.57;;;;;;;18.18;42.56;102461.81;5053023;28;20056;-49
2023/01/24 09:05:06;;;;;;;6.80;4.38;;;;;;;18.16;42.60;102460.19;5052408;28;20411;-49
2023/01/24 09:07:38;;;;;;;7.55;4.50;;;;;;;18.13;42.74;102466.56;5052730;28;20072;-47
2023/01/24 09:10:06;;;;;;;9.60;4.67;;;;;;;18.13;42.75;102463.88;5053157;28;20048;-47
2023/01/24 09:12:34;;;;;;;9.30;5.15;;;;;;;18.10;42.77;102469.41;5051813;28;20049;-48
2023/01/24 09:15:01;;;;;;;6.90;4.93;;;;;;;18.09;42.93;102473.03;5052800;28;20045;-50
2023/01/24 09:17:28;;;;;;;7.60;4.90;;;;;;;18.08;42.71;102475.81;5053094;28;20391;-49
2023/01/24 09:19:56;;;;;;;7.30;4.93;;;;;;;18.05;42.83;102476.84;5053731;28;20049;-58
2023/01/24 09:22:23;;;;;;;7.53;5.50;;;;;;;18.03;42.91;102471.56;5052933;28;20048;-58
2023/01/24 09:24:50;;;;;;;8.63;5.18;;;;;;;18.02;42.89;102479.69;5052800;28;20049;-59
2023/01/24 09:27:18;;;;;;;7.63;4.97;;;;;;;18.01;43.09;102486.84;5053094;28;20399;-59
2023/01/24 09:29:45;;;;;;;6.82;4.03;;;;;;;18.02;43.57;102493.06;5052886;28;20399;-59
2023/01/24 09:32:13;;;;;;;6.28;3.40;;;;;;;18.10;44.03;102492.66;5052866;28;20049;-58
2023/01/24 09:34:46;;;;;;;4.50;2.88;;;;;;;18.15;43.96;102486.13;5052659;28;20056;-58
2023/01/24 09:37:17;;;;;;;;;;;;;;;18.22;43.82;102494.69;5053243;28;20056;-58
2023/01/24 09:39:45;;;;;;;5.28;2.63;;;;;;;18.25;43.90;102502.56;5052688;28;20351;-51
2023/01/24 09:43:17;;;;;;;5.65;2.97;;;;;;;18.32;44.06;102508.47;5052948;28;20048;-48
2023/01/24 09:46:04;;;;;;;4.50;2.55;;;;;;;18.36;44.04;102499.28;5048416;28;20060;-49
2023/01/24 09:48:33;;;;;;;6.45;2.90;;;;;;;18.38;43.88;102500.06;5050930;28;20052;-47
2023/01/24 09:51:13;;;;;;;3.63;2.08;;;;;;;18.40;43.96;102501.72;5050186;28;20053;-46
2023/01/24 09:53:44;;;;;;;4.60;2.45;;;;;;;18.43;44.06;102500.66;5050342;28;20061;-47
2023/01/24 09:56:46;;;;;;;5.63;2.33;;;;;;;18.45;43.97;102496.09;5050049;28;20060;-47
2023/01/24 09:59:23;;;;;;;7.50;2.47;;;;;;;18.47;44.07;102499.53;4999056;28;20061;-47
2023/01/24 10:01:52;;;;;;;6.38;2.50;;;;;;;18.49;44.25;102494.97;5050279;28;20049;-47
2023/01/24 10:04:24;;;;;;;3.03;2.08;;;;;;;18.50;44.08;102491.31;5049512;28;20153;-50
2023/01/24 10:07:03;;;;;;;6.07;2.38;;;;;;;18.51;44.34;102499.31;5050061;28;20048;-47
2023/01/24 10:09:30;;;;;;;5.50;2.65;;;;;;;18.51;44.33;102495.72;5050281;28;20061;-54
2023/01/24 10:12:18;;;;;;;4.07;2.38;;;;;;;18.51;44.22;102476.97;5049467;28;20057;-55
2023/01/24 10:14:57;;;;;;;4.55;2.15;;;;;;;18.51;44.35;102477.84;5050167;28;20060;-54
2023/01/24 10:17:27;;;;;;;3.65;1.85;;;;;;;18.53;44.34;102477.75;5053281;28;20053;-52
2023/01/24 10:20:00;;;;;;;4.95;2.10;;;;;;;18.54;44.38;102471.44;5056214;28;20041;-55
2023/01/24 10:22:59;;;;;;;4.07;2.30;;;;;;;18.53;44.47;102473.25;5055976;28;20052;-54
2023/01/24 10:26:05;;;;;;;3.80;2.03;;;;;;;18.55;44.31;102475.84;5055827;28;20045;-52
2023/01/24 10:28:43;;;;;;;4.78;2.30;;;;;;;18.56;44.46;102471.38;5054987;28;20061;-55
2023/01/24 10:31:22;;;;;;;4.30;2.22;;;;;;;18.56;44.52;102472.22;5055723;28;20045;-54
2023/01/24 10:33:57;;;;;;;4.18;2.22;;;;;;;18.57;44.57;102462.34;5055701;28;20502;-54
2023/01/24 10:36:34;;;;;;;2.63;1.70;;;;;;;18.57;44.65;102454.31;5055625;28;20048;-55
2023/01/24 10:39:02;;;;;;;3.28;2.20;;;;;;;18.58;44.49;102459.56;5055868;28;20522;-47
2023/01/24 10:41:32;;;;;;;4.43;2.20;;;;;;;18.58;44.69;102458.72;5054555;28;20414;-47
2023/01/24 10:44:07;;;;;;;5.20;2.05;;;;;;;18.58;44.63;102454.22;5055114;28;20040;-46
2023/01/24 10:47:09;;;;;;;5.57;2.25;;;;;;;18.59;44.61;102452.38;5055416;28;20056;-47
2023/01/24 10:49:40;;;;;;;4.13;2.03;;;;;;;18.60;44.64;102448.78;5055324;28;20051;-55
2023/01/24 10:52:15;;;;;;;3.60;2.08;;;;;;;18.60;44.70;102452.31;5055457;28;20041;-55
2023/01/24 10:54:42;;;;;;;3.20;1.77;;;;;;;18.61;44.66;102448.69;5055437;28;20384;-51
2023/01/24 10:57:18;;;;;;;3.92;1.80;;;;;;;18.60;44.88;102452.31;5055157;28;20578;-55
2023/01/24 10:59:46;;;;;;;3.83;2.00;;;;;;;18.61;44.85;102448.69;5055376;28;20041;-52
2023/01/24 11:02:21;;;;;;;4.60;2.10;;;;;;;18.61;45.02;102437.09;5055190;28;20071;-55
2023/01/24 11:05:11;;;;;;;5.43;2.00;;;;;;;18.61;45.04;102448.69;5054082;28;20058;-55
2023/01/24 11:07:45;;;;;;;3.95;2.10;;;;;;;18.62;45.10;102438.81;5053961;28;20049;-55
2023/01/24 11:10:32;;;;;;;4.20;2.30;;;;;;;18.62;44.89;102444.19;5055258;28;20486;-46
2023/01/24 11:13:02;;;;;;;3.70;2.30;;;;;;;18.62;45.16;102439.69;5054895;28;20492;-51
2023/01/24 11:15:32;;;;;;;2.80;1.80;;;;;;;18.62;45.11;102437.00;5054768;28;20048;-48
2023/01/24 11:18:21;;;;;;;5.28;2.33;;;;;;;18.63;45.30;102430.66;5055022;28;20049;-48
2023/01/24 11:21:04;;;;;;;5.15;2.42;;;;;;;18.62;45.22;102426.25;5054273;28;20060;-48
2023/01/24 11:23:32;;;;;;;4.30;2.10;;;;;;;18.63;45.17;102427.97;5054807;28;20056;-51
2023/01/24 11:26:02;;;;;;;4.93;2.15;;;;;;;18.63;45.35;102427.97;5054445;28;20060;-47
2023/01/24 11:28:35;;;;;;;3.90;1.77;;;;;;;18.64;45.21;102431.56;5053657;28;20041;-53
2023/01/24 11:31:15;;;;;;;5.25;1.90;;;;;;;18.63;45.40;102433.34;5054598;28;20048;-54
2023/01/24 11:34:02;;;;;;;2.80;1.83;;;;;;;18.63;45.33;102427.97;5054754;28;20056;-53
2023/01/24 11:36:57;;;;;;;3.83;2.08;;;;;;;18.63;45.19;102436.03;5054632;28;20491;-55
2023/01/24 11:39:50;;;;;;;3.42;2.00;;;;;;;18.63;45.51;102419.94;5054951;28;20052;-47
2023/01/24 11:42:44;;;;;;;4.03;2.03;;;;;;;18.63;45.30;102419.06;5054687;28;20044;-48
2023/01/24 11:45:21;;;;;;;3.90;2.13;;;;;;;18.62;45.27;102414.66;5054372;28;20083;-47
2023/01/24 11:47:59;;;;;;;4.47;2.42;;;;;;;18.62;45.63;102418.22;5054206;28;20380;-51
2023/01/24 11:50:43;;;;;;;3.90;2.05;;;;;;;18.62;45.64;102412.84;5053976;28;20056;-54
2023/01/24 11:53:28;;;;;;;5.75;1.88;;;;;;;18.63;45.88;102408.34;5054322;28;20061;-53
2023/01/24 11:56:01;;;;;;;4.07;2.15;;;;;;;18.64;45.82;102399.38;5054161;28;20053;-55
2023/01/24 11:58:53;;;;;;;4.20;2.08;;;;;;;18.63;45.98;102394.94;5054103;28;20041;-53
2023/01/24 12:01:42;;;;;;;3.08;2.38;;;;;;;18.64;46.03;102400.22;5053357;28;20049;-55
2023/01/24 12:04:15;;;;;;;2.92;1.73;;;;;;;18.64;46.02;102405.59;5052685;28;20487;-54
2023/01/24 12:06:53;;;;;;;6.40;2.17;;;;;;;18.63;46.05;102403.84;5053715;28;20089;-54
2023/01/24 12:09:23;;;;;;;4.03;2.33;;;;;;;18.63;45.83;102398.47;5053917;28;20048;-53
2023/01/24 12:12:03;;;;;;;4.32;2.00;;;;;;;18.64;45.90;102402.06;5053512;28;20041;-54
2023/01/24 12:15:02;;;;;;;3.53;1.98;;;;;;;18.63;45.88;102397.63;5053437;28;20056;-55
2023/01/24 12:17:35;;;;;;;5.32;2.17;;;;;;;18.63;45.95;102382.38;5031111;28;20488;-54
2023/01/24 12:20:07;;;;;;;;;;;;;;;18.62;45.98;102386.03;5054098;28;20053;-50
2023/01/24 12:22:37;;;;;;;;;;;;;;;18.63;45.99;102389.56;5053786;28;19920;-51
2023/01/24 12:25:36;;;;;;;3.55;2.35;;;;;;;18.63;45.83;102386.88;5053108;28;19920;-49